sensor_id;sensor_type;location;lat;lon;timestamp;pressure;altitude;pressure_sealevel;temperature;humidity
65329;BME280;51941;52.210;5.158;2023-06-26T00:00:04;101114.19;;;23.81;79.81
65329;BME280;51941;52.210;5.158;2023-06-26T00:02:32;101117.84;;;23.76;80.35
65329;BME280;51941;52.210;5.158;2023-06-26T00:04:59;101118.00;;;23.71;80.54
65329;BME280;51941;52.210;5.158;2023-06-26T00:07:28;101125.63;;;23.69;81.39
65329;BME280;51941;52.210;5.158;2023-06-26T00:09:55;101116.03;;;23.63;81.65
65329;BME280;51941;52.210;5.158;2023-06-26T00:12:22;101114.28;;;23.58;83.07
65329;BME280;51941;52.210;5.158;2023-06-26T00:14:48;101115.53;;;23.52;83.86
65329;BME280;51941;52.210;5.158;2023-06-26T00:17:17;101110.22;;;23.47;84.29
65329;BME280;51941;52.210;5.158;2023-06-26T00:19:43;101108.97;;;23.45;84.34
65329;BME280;51941;52.210;5.158;2023-06-26T00:22:10;101106.56;;;23.43;84.28
65329;BME280;51941;52.210;5.158;2023-06-26T00:24:37;101098.59;;;23.38;84.33
65329;BME280;51941;52.210;5.158;2023-06-26T00:27:05;101093.97;;;23.38;84.50
65329;BME280;51941;52.210;5.158;2023-06-26T00:29:31;101089.69;;;23.37;84.65
65329;BME280;51941;52.210;5.158;2023-06-26T00:31:58;101083.47;;;23.37;84.91
65329;BME280;51941;52.210;5.158;2023-06-26T00:34:27;101090.47;;;23.38;85.18
65329;BME280;51941;52.210;5.158;2023-06-26T00:36:53;101083.03;;;23.35;86.12
65329;BME280;51941;52.210;5.158;2023-06-26T00:39:20;101083.63;;;23.32;86.82
65329;BME280;51941;52.210;5.158;2023-06-26T00:41:47;101087.44;;;23.31;86.48
65329;BME280;51941;52.210;5.158;2023-06-26T00:44:14;101099.97;;;23.27;87.94
65329;BME280;51941;52.210;5.158;2023-06-26T00:46:41;101096.28;;;23.23;88.88
65329;BME280;51941;52.210;5.158;2023-06-26T00:49:10;101104.00;;;23.16;89.96
65329;BME280;51941;52.210;5.158;2023-06-26T00:51:38;101104.56;;;23.04;90.66
65329;BME280;51941;52.210;5.158;2023-06-26T00:54:06;101115.78;;;22.97;92.70
65329;BME280;51941;52.210;5.158;2023-06-26T00:56:33;101121.78;;;22.94;92.66
65329;BME280;51941;52.210;5.158;2023-06-26T00:59:00;101126.38;;;22.94;92.23
65329;BME280;51941;52.210;5.158;2023-06-26T01:01:27;101127.03;;;22.91;92.09
65329;BME280;51941;52.210;5.158;2023-06-26T01:03:54;101126.22;;;22.90;91.87
65329;BME280;51941;52.210;5.158;2023-06-26T01:06:26;101131.31;;;22.92;91.28
65329;BME280;51941;52.210;5.158;2023-06-26T01:08:57;101129.88;;;22.94;90.83
65329;BME280;51941;52.210;5.158;2023-06-26T01:11:24;101126.69;;;22.92;91.41
65329;BME280;51941;52.210;5.158;2023-06-26T01:13:51;101131.91;;;22.89;91.95
65329;BME280;51941;52.210;5.158;2023-06-26T01:16:20;101130.13;;;22.84;92.77
65329;BME280;51941;52.210;5.158;2023-06-26T01:18:47;101135.16;;;22.77;93.67
65329;BME280;51941;52.210;5.158;2023-06-26T01:21:14;101133.00;;;22.66;94.31
65329;BME280;51941;52.210;5.158;2023-06-26T01:23:49;101143.47;;;22.67;94.91
65329;BME280;51941;52.210;5.158;2023-06-26T01:26:27;101150.91;;;22.61;95.81
65329;BME280;51941;52.210;5.158;2023-06-26T01:28:57;101151.09;;;22.51;97.33
65329;BME280;51941;52.210;5.158;2023-06-26T01:31:24;101158.50;;;22.46;97.36
65329;BME280;51941;52.210;5.158;2023-06-26T01:33:53;101156.69;;;22.41;97.31
65329;BME280;51941;52.210;5.158;2023-06-26T01:36:21;101140.72;;;22.31;97.26
65329;BME280;51941;52.210;5.158;2023-06-26T01:38:48;101145.34;;;22.31;97.53
65329;BME280;51941;52.210;5.158;2023-06-26T01:41:15;101144.63;;;22.25;97.81
65329;BME280;51941;52.210;5.158;2023-06-26T01:44:02;101138.84;;;22.18;98.72
65329;BME280;51941;52.210;5.158;2023-06-26T01:46:37;101142.03;;;22.20;98.33
65329;BME280;51941;52.210;5.158;2023-06-26T01:49:10;101134.84;;;22.15;99.06
65329;BME280;51941;52.210;5.158;2023-06-26T01:51:42;101130.38;;;22.11;99.07
65329;BME280;51941;52.210;5.158;2023-06-26T01:54:18;101140.25;;;22.02;100.00
65329;BME280;51941;52.210;5.158;2023-06-26T01:56:49;101138.44;;;21.97;100.00
65329;BME280;51941;52.210;5.158;2023-06-26T01:59:19;101144.44;;;21.94;100.00
65329;BME280;51941;52.210;5.158;2023-06-26T02:01:47;101151.81;;;21.88;100.00
65329;BME280;51941;52.210;5.158;2023-06-26T02:04:14;101155.50;;;21.79;100.00
65329;BME280;51941;52.210;5.158;2023-06-26T02:06:41;101151.50;;;21.76;100.00
65329;BME280;51941;52.210;5.158;2023-06-26T02:09:07;101149.66;;;21.72;100.00
65329;BME280;51941;52.210;5.158;2023-06-26T02:11:34;101144.38;;;21.67;100.00
65329;BME280;51941;52.210;5.158;2023-06-26T02:14:01;101140.88;;;21.66;100.00
65329;BME280;51941;52.210;5.158;2023-06-26T02:16:29;101143.88;;;21.65;100.00
65329;BME280;51941;52.210;5.158;2023-06-26T02:18:56;101155.84;;;21.59;100.00
65329;BME280;51941;52.210;5.158;2023-06-26T02:21:23;101153.72;;;21.56;100.00
65329;BME280;51941;52.210;5.158;2023-06-26T02:23:50;101164.09;;;21.48;100.00
65329;BME280;51941;52.210;5.158;2023-06-26T02:26:17;101158.19;;;21.46;100.00
65329;BME280;51941;52.210;5.158;2023-06-26T02:28:43;101158.78;;;21.43;100.00
65329;BME280;51941;52.210;5.158;2023-06-26T02:31:11;101162.09;;;21.40;100.00
65329;BME280;51941;52.210;5.158;2023-06-26T02:33:41;101161.56;;;21.38;100.00
65329;BME280;51941;52.210;5.158;2023-06-26T02:36:08;101161.84;;;21.37;100.00
65329;BME280;51941;52.210;5.158;2023-06-26T02:38:34;101165.16;;;21.34;100.00
65329;BME280;51941;52.210;5.158;2023-06-26T02:41:02;101164.13;;;21.30;100.00
65329;BME280;51941;52.210;5.158;2023-06-26T02:43:29;101151.25;;;21.27;100.00
65329;BME280;51941;52.210;5.158;2023-06-26T02:45:56;101165.31;;;21.24;100.00
65329;BME280;51941;52.210;5.158;2023-06-26T02:48:22;101166.41;;;21.23;100.00
65329;BME280;51941;52.210;5.158;2023-06-26T02:50:51;101161.03;;;21.23;100.00
65329;BME280;51941;52.210;5.158;2023-06-26T02:53:21;101165.38;;;21.19;100.00
65329;BME280;51941;52.210;5.158;2023-06-26T02:55:48;101177.03;;;21.14;100.00
65329;BME280;51941;52.210;5.158;2023-06-26T02:58:16;101175.50;;;21.08;100.00
65329;BME280;51941;52.210;5.158;2023-06-26T03:00:44;101175.34;;;20.99;100.00
65329;BME280;51941;52.210;5.158;2023-06-26T03:03:15;101187.50;;;20.97;100.00
65329;BME280;51941;52.210;5.158;2023-06-26T03:05:41;101181.19;;;20.88;100.00
65329;BME280;51941;52.210;5.158;2023-06-26T03:08:10;101180.13;;;20.84;100.00
65329;BME280;51941;52.210;5.158;2023-06-26T03:10:37;101182.13;;;20.78;100.00
65329;BME280;51941;52.210;5.158;2023-06-26T03:13:04;101185.16;;;20.71;100.00
65329;BME280;51941;52.210;5.158;2023-06-26T03:15:31;101192.19;;;20.67;100.00
65329;BME280;51941;52.210;5.158;2023-06-26T03:17:58;101191.69;;;20.65;100.00
65329;BME280;51941;52.210;5.158;2023-06-26T03:20:27;101197.66;;;20.62;100.00
65329;BME280;51941;52.210;5.158;2023-06-26T03:22:56;101200.19;;;20.54;100.00
65329;BME280;51941;52.210;5.158;2023-06-26T03:25:24;101195.09;;;20.52;100.00
65329;BME280;51941;52.210;5.158;2023-06-26T03:28:04;101198.91;;;20.46;100.00
65329;BME280;51941;52.210;5.158;2023-06-26T03:30:33;101205.69;;;20.44;100.00
65329;BME280;51941;52.210;5.158;2023-06-26T03:33:00;101207.34;;;20.39;100.00
65329;BME280;51941;52.210;5.158;2023-06-26T03:35:27;101219.25;;;20.33;100.00
65329;BME280;51941;52.210;5.158;2023-06-26T03:37:54;101226.50;;;20.33;100.00
65329;BME280;51941;52.210;5.158;2023-06-26T03:40:20;101221.19;;;20.28;100.00
65329;BME280;51941;52.210;5.158;2023-06-26T03:42:49;101212.09;;;20.24;100.00
65329;BME280;51941;52.210;5.158;2023-06-26T03:45:16;101223.88;;;20.28;100.00
65329;BME280;51941;52.210;5.158;2023-06-26T03:47:44;101217.19;;;20.25;100.00
65329;BME280;51941;52.210;5.158;2023-06-26T03:50:14;101221.47;;;20.26;100.00
65329;BME280;51941;52.210;5.158;2023-06-26T03:52:40;101231.44;;;20.26;100.00
65329;BME280;51941;52.210;5.158;2023-06-26T03:55:07;101234.41;;;20.24;100.00
65329;BME280;51941;52.210;5.158;2023-06-26T03:57:34;101233.34;;;20.20;100.00
65329;BME280;51941;52.210;5.158;2023-06-26T04:00:03;101232.06;;;20.18;100.00
65329;BME280;51941;52.210;5.158;2023-06-26T04:02:40;101241.41;;;20.20;100.00
65329;BME280;51941;52.210;5.158;2023-06-26T04:05:07;101249.78;;;20.19;100.00
65329;BME280;51941;52.210;5.158;2023-06-26T04:07:34;101253.81;;;20.16;100.00
65329;BME280;51941;52.210;5.158;2023-06-26T04:10:01;101249.00;;;20.13;100.00
65329;BME280;51941;52.210;5.158;2023-06-26T04:12:28;101251.94;;;20.17;100.00
65329;BME280;51941;52.210;5.158;2023-06-26T04:14:55;101250.31;;;20.16;100.00
65329;BME280;51941;52.210;5.158;2023-06-26T04:17:24;101253.78;;;20.21;100.00
65329;BME280;51941;52.210;5.158;2023-06-26T04:19:51;101251.94;;;20.17;100.00
65329;BME280;51941;52.210;5.158;2023-06-26T04:22:18;101255.97;;;20.14;100.00
65329;BME280;51941;52.210;5.158;2023-06-26T04:24:45;101261.84;;;20.21;100.00
65329;BME280;51941;52.210;5.158;2023-06-26T04:27:12;101268.53;;;20.24;100.00
65329;BME280;51941;52.210;5.158;2023-06-26T04:29:40;101273.63;;;20.25;100.00
65329;BME280;51941;52.210;5.158;2023-06-26T04:32:06;101286.72;;;20.37;100.00
65329;BME280;51941;52.210;5.158;2023-06-26T04:34:35;101282.56;;;20.68;100.00
65329;BME280;51941;52.210;5.158;2023-06-26T04:37:06;101289.25;;;20.95;100.00
65329;BME280;51941;52.210;5.158;2023-06-26T04:39:35;101288.22;;;21.14;100.00
65329;BME280;51941;52.210;5.158;2023-06-26T04:42:04;101286.63;;;21.51;100.00
65329;BME280;51941;52.210;5.158;2023-06-26T04:44:31;101299.72;;;21.76;100.00
65329;BME280;51941;52.210;5.158;2023-06-26T04:46:58;101292.84;;;21.84;100.00
65329;BME280;51941;52.210;5.158;2023-06-26T04:49:25;101297.03;;;21.76;100.00
65329;BME280;51941;52.210;5.158;2023-06-26T04:51:54;101308.44;;;21.49;100.00
65329;BME280;51941;52.210;5.158;2023-06-26T04:54:21;101305.34;;;21.42;100.00
65329;BME280;51941;52.210;5.158;2023-06-26T04:56:48;101305.97;;;21.53;100.00
65329;BME280;51941;52.210;5.158;2023-06-26T04:59:15;101296.50;;;21.74;100.00
65329;BME280;51941;52.210;5.158;2023-06-26T05:01:42;101302.75;;;22.21;100.00
65329;BME280;51941;52.210;5.158;2023-06-26T05:04:13;101306.09;;;22.73;100.00
65329;BME280;51941;52.210;5.158;2023-06-26T05:06:40;101316.25;;;23.17;95.05
65329;BME280;51941;52.210;5.158;2023-06-26T05:09:11;101318.34;;;23.33;92.01
65329;BME280;51941;52.210;5.158;2023-06-26T05:11:39;101318.84;;;23.22;89.32
65329;BME280;51941;52.210;5.158;2023-06-26T05:14:05;101307.16;;;23.26;88.74
65329;BME280;51941;52.210;5.158;2023-06-26T05:16:34;101318.53;;;23.82;87.33
65329;BME280;51941;52.210;5.158;2023-06-26T05:19:01;101322.59;;;24.46;83.51
65329;BME280;51941;52.210;5.158;2023-06-26T05:21:32;101326.28;;;24.90;77.98
65329;BME280;51941;52.210;5.158;2023-06-26T05:24:02;101324.00;;;25.31;73.62
65329;BME280;51941;52.210;5.158;2023-06-26T05:26:30;101323.00;;;25.18;68.68
65329;BME280;51941;52.210;5.158;2023-06-26T05:28:58;101325.13;;;25.73;68.92
65329;BME280;51941;52.210;5.158;2023-06-26T05:31:25;101335.47;;;26.06;67.23
65329;BME280;51941;52.210;5.158;2023-06-26T05:33:55;101336.97;;;26.32;64.54
65329;BME280;51941;52.210;5.158;2023-06-26T05:36:23;101340.63;;;26.37;62.83
65329;BME280;51941;52.210;5.158;2023-06-26T05:38:50;101349.91;;;26.27;61.31
65329;BME280;51941;52.210;5.158;2023-06-26T05:41:18;101362.16;;;26.59;60.85
65329;BME280;51941;52.210;5.158;2023-06-26T05:43:46;101354.47;;;26.61;59.20
65329;BME280;51941;52.210;5.158;2023-06-26T05:46:13;101352.88;;;26.51;58.56
65329;BME280;51941;52.210;5.158;2023-06-26T05:48:40;101372.72;;;26.81;59.19
65329;BME280;51941;52.210;5.158;2023-06-26T05:51:07;101370.22;;;27.05;57.63
65329;BME280;51941;52.210;5.158;2023-06-26T05:53:34;101385.59;;;26.63;56.85
65329;BME280;51941;52.210;5.158;2023-06-26T05:56:02;101389.63;;;26.95;57.00
65329;BME280;51941;52.210;5.158;2023-06-26T05:58:30;101377.16;;;26.94;56.38
65329;BME280;51941;52.210;5.158;2023-06-26T06:00:58;101385.84;;;26.88;57.18
65329;BME280;51941;52.210;5.158;2023-06-26T06:03:24;101391.09;;;27.22;56.57
65329;BME280;51941;52.210;5.158;2023-06-26T06:05:51;101389.44;;;27.51;55.83
65329;BME280;51941;52.210;5.158;2023-06-26T06:08:18;101408.66;;;27.25;54.87
65329;BME280;51941;52.210;5.158;2023-06-26T06:10:45;101403.03;;;27.51;53.46
65329;BME280;51941;52.210;5.158;2023-06-26T06:13:11;101415.78;;;27.38;52.45
65329;BME280;51941;52.210;5.158;2023-06-26T06:15:38;101417.13;;;26.94;52.89
65329;BME280;51941;52.210;5.158;2023-06-26T06:18:06;101414.44;;;26.21;55.49
65329;BME280;51941;52.210;5.158;2023-06-26T06:20:33;101416.66;;;26.28;56.85
65329;BME280;51941;52.210;5.158;2023-06-26T06:23:02;101421.03;;;26.76;55.38
65329;BME280;51941;52.210;5.158;2023-06-26T06:25:29;101421.50;;;26.78;54.86
65329;BME280;51941;52.210;5.158;2023-06-26T06:27:57;101432.56;;;26.47;56.28
65329;BME280;51941;52.210;5.158;2023-06-26T06:30:23;101441.38;;;26.52;55.10
65329;BME280;51941;52.210;5.158;2023-06-26T06:32:50;101443.31;;;26.43;55.94
65329;BME280;51941;52.210;5.158;2023-06-26T06:35:19;101446.88;;;26.82;55.63
65329;BME280;51941;52.210;5.158;2023-06-26T06:37:46;101457.94;;;27.23;55.66
65329;BME280;51941;52.210;5.158;2023-06-26T06:40:14;101462.97;;;27.33;54.42
65329;BME280;51941;52.210;5.158;2023-06-26T06:42:41;101462.94;;;26.57;56.34
65329;BME280;51941;52.210;5.158;2023-06-26T06:45:09;101474.25;;;25.73;60.43
65329;BME280;51941;52.210;5.158;2023-06-26T06:47:35;101470.53;;;25.12;64.50
65329;BME280;51941;52.210;5.158;2023-06-26T06:50:02;101461.66;;;24.81;66.95
65329;BME280;51941;52.210;5.158;2023-06-26T06:52:36;101473.66;;;24.97;68.32
65329;BME280;51941;52.210;5.158;2023-06-26T06:55:04;101467.59;;;24.92;68.36
65329;BME280;51941;52.210;5.158;2023-06-26T06:57:33;101483.00;;;24.82;69.83
65329;BME280;51941;52.210;5.158;2023-06-26T07:00:02;101477.13;;;24.89;70.50
65329;BME280;51941;52.210;5.158;2023-06-26T07:02:30;101484.69;;;25.40;67.76
65329;BME280;51941;52.210;5.158;2023-06-26T07:04:58;101488.94;;;25.72;64.34
65329;BME280;51941;52.210;5.158;2023-06-26T07:07:28;101492.66;;;26.02;62.30
65329;BME280;51941;52.210;5.158;2023-06-26T07:09:58;101491.03;;;26.18;61.13
65329;BME280;51941;52.210;5.158;2023-06-26T07:12:25;101489.59;;;26.64;60.12
65329;BME280;51941;52.210;5.158;2023-06-26T07:14:51;101496.28;;;26.66;58.45
65329;BME280;51941;52.210;5.158;2023-06-26T07:17:19;101479.72;;;26.97;57.33
65329;BME280;51941;52.210;5.158;2023-06-26T07:19:46;101501.13;;;27.45;55.59
65329;BME280;51941;52.210;5.158;2023-06-26T07:22:13;101500.13;;;27.50;54.61
65329;BME280;51941;52.210;5.158;2023-06-26T07:24:40;101495.28;;;27.85;53.74
65329;BME280;51941;52.210;5.158;2023-06-26T07:27:08;101494.75;;;28.12;52.27
65329;BME280;51941;52.210;5.158;2023-06-26T07:29:34;101503.38;;;28.35;50.92
65329;BME280;51941;52.210;5.158;2023-06-26T07:32:01;101511.88;;;28.34;50.53
65329;BME280;51941;52.210;5.158;2023-06-26T07:34:28;101511.81;;;28.22;50.56
65329;BME280;51941;52.210;5.158;2023-06-26T07:36:54;101512.50;;;28.39;49.92
65329;BME280;51941;52.210;5.158;2023-06-26T07:39:21;101524.47;;;27.76;49.62
65329;BME280;51941;52.210;5.158;2023-06-26T07:41:48;101522.53;;;27.09;51.42
65329;BME280;51941;52.210;5.158;2023-06-26T07:44:16;101524.19;;;26.93;53.01
65329;BME280;51941;52.210;5.158;2023-06-26T07:46:42;101521.84;;;27.29;52.24
65329;BME280;51941;52.210;5.158;2023-06-26T07:49:10;101520.28;;;27.11;51.61
65329;BME280;51941;52.210;5.158;2023-06-26T07:51:37;101529.78;;;26.96;52.88
65329;BME280;51941;52.210;5.158;2023-06-26T07:54:03;101540.25;;;26.60;53.75
65329;BME280;51941;52.210;5.158;2023-06-26T07:56:30;101531.44;;;26.20;54.59
65329;BME280;51941;52.210;5.158;2023-06-26T07:58:57;101538.78;;;26.28;56.07
65329;BME280;51941;52.210;5.158;2023-06-26T08:01:27;101535.59;;;26.52;55.29
65329;BME280;51941;52.210;5.158;2023-06-26T08:03:53;101541.50;;;26.37;55.78
65329;BME280;51941;52.210;5.158;2023-06-26T08:06:20;101546.91;;;26.28;55.81
65329;BME280;51941;52.210;5.158;2023-06-26T08:08:47;101539.13;;;26.61;55.47
65329;BME280;51941;52.210;5.158;2023-06-26T08:11:13;101548.09;;;27.17;53.36
65329;BME280;51941;52.210;5.158;2023-06-26T08:13:40;101549.97;;;27.33;50.93
65329;BME280;51941;52.210;5.158;2023-06-26T08:16:07;101549.16;;;26.78;51.66
65329;BME280;51941;52.210;5.158;2023-06-26T08:18:35;101563.13;;;27.14;51.07
65329;BME280;51941;52.210;5.158;2023-06-26T08:21:02;101559.53;;;26.76;52.13
65329;BME280;51941;52.210;5.158;2023-06-26T08:23:29;101565.78;;;26.42;53.03
65329;BME280;51941;52.210;5.158;2023-06-26T08:25:59;101565.78;;;26.67;52.24
65329;BME280;51941;52.210;5.158;2023-06-26T08:28:26;101571.59;;;27.13;51.59
65329;BME280;51941;52.210;5.158;2023-06-26T08:30:53;101570.56;;;27.43;50.01
65329;BME280;51941;52.210;5.158;2023-06-26T08:33:20;101573.66;;;27.62;48.02
65329;BME280;51941;52.210;5.158;2023-06-26T08:35:49;101576.28;;;27.50;47.51
65329;BME280;51941;52.210;5.158;2023-06-26T08:38:16;101575.53;;;27.32;47.83
65329;BME280;51941;52.210;5.158;2023-06-26T08:40:43;101578.81;;;27.08;48.30
65329;BME280;51941;52.210;5.158;2023-06-26T08:43:10;101586.56;;;26.55;49.86
65329;BME280;51941;52.210;5.158;2023-06-26T08:45:37;101573.13;;;26.32;50.39
65329;BME280;51941;52.210;5.158;2023-06-26T08:48:07;101596.22;;;25.95;51.42
65329;BME280;51941;52.210;5.158;2023-06-26T08:50:35;101586.22;;;25.34;53.07
65329;BME280;51941;52.210;5.158;2023-06-26T08:53:12;101575.81;;;24.74;55.79
65329;BME280;51941;52.210;5.158;2023-06-26T08:55:41;101589.72;;;24.81;56.68
65329;BME280;51941;52.210;5.158;2023-06-26T08:58:09;101589.28;;;24.88;56.58
65329;BME280;51941;52.210;5.158;2023-06-26T09:00:38;101588.84;;;24.72;57.03
65329;BME280;51941;52.210;5.158;2023-06-26T09:03:05;101598.03;;;24.49;57.70
65329;BME280;51941;52.210;5.158;2023-06-26T09:05:32;101599.50;;;24.33;58.31
65329;BME280;51941;52.210;5.158;2023-06-26T09:07:59;101600.28;;;24.33;58.98
65329;BME280;51941;52.210;5.158;2023-06-26T09:10:27;101607.91;;;24.18;58.63
65329;BME280;51941;52.210;5.158;2023-06-26T09:12:55;101605.00;;;24.28;57.66
65329;BME280;51941;52.210;5.158;2023-06-26T09:15:22;101612.78;;;24.43;57.21
65329;BME280;51941;52.210;5.158;2023-06-26T09:17:49;101614.09;;;24.59;57.05
65329;BME280;51941;52.210;5.158;2023-06-26T09:20:16;101613.41;;;24.76;55.19
65329;BME280;51941;52.210;5.158;2023-06-26T09:22:47;101617.75;;;24.63;54.36
65329;BME280;51941;52.210;5.158;2023-06-26T09:25:14;101624.66;;;24.20;55.15
65329;BME280;51941;52.210;5.158;2023-06-26T09:27:42;101632.78;;;24.20;55.85
65329;BME280;51941;52.210;5.158;2023-06-26T09:30:10;101630.38;;;24.18;56.76
65329;BME280;51941;52.210;5.158;2023-06-26T09:32:37;101624.41;;;24.43;56.56
65329;BME280;51941;52.210;5.158;2023-06-26T09:35:04;101630.69;;;24.66;54.78
65329;BME280;51941;52.210;5.158;2023-06-26T09:37:32;101635.19;;;24.71;53.71
65329;BME280;51941;52.210;5.158;2023-06-26T09:39:59;101634.88;;;24.72;53.39
65329;BME280;51941;52.210;5.158;2023-06-26T09:42:26;101636.97;;;24.39;53.53
65329;BME280;51941;52.210;5.158;2023-06-26T09:44:54;101642.25;;;24.44;54.18
65329;BME280;51941;52.210;5.158;2023-06-26T09:47:21;101649.63;;;24.53;53.51
65329;BME280;51941;52.210;5.158;2023-06-26T09:49:48;101653.75;;;24.64;52.97
65329;BME280;51941;52.210;5.158;2023-06-26T09:52:18;101657.28;;;24.64;52.89
65329;BME280;51941;52.210;5.158;2023-06-26T09:54:45;101664.94;;;24.07;52.52
65329;BME280;51941;52.210;5.158;2023-06-26T09:57:13;101665.47;;;23.96;52.11
65329;BME280;51941;52.210;5.158;2023-06-26T09:59:44;101669.19;;;23.67;52.03
65329;BME280;51941;52.210;5.158;2023-06-26T10:02:13;101672.78;;;23.63;52.04
65329;BME280;51941;52.210;5.158;2023-06-26T10:04:39;101669.72;;;23.69;52.34
65329;BME280;51941;52.210;5.158;2023-06-26T10:07:10;101683.47;;;23.03;53.65
65329;BME280;51941;52.210;5.158;2023-06-26T10:09:40;101695.97;;;23.18;52.80
65329;BME280;51941;52.210;5.158;2023-06-26T10:12:12;101691.72;;;23.30;51.99
65329;BME280;51941;52.210;5.158;2023-06-26T10:14:41;101696.03;;;23.31;52.49
65329;BME280;51941;52.210;5.158;2023-06-26T10:17:10;101686.84;;;23.46;52.39
65329;BME280;51941;52.210;5.158;2023-06-26T10:19:44;101683.53;;;23.68;52.23
65329;BME280;51941;52.210;5.158;2023-06-26T10:22:12;101684.38;;;23.50;51.10
65329;BME280;51941;52.210;5.158;2023-06-26T10:24:41;101697.84;;;23.68;50.88
65329;BME280;51941;52.210;5.158;2023-06-26T10:27:15;101702.56;;;23.77;51.69
65329;BME280;51941;52.210;5.158;2023-06-26T10:29:44;101709.06;;;23.89;51.62
65329;BME280;51941;52.210;5.158;2023-06-26T10:32:12;101716.03;;;24.09;51.64
65329;BME280;51941;52.210;5.158;2023-06-26T10:34:44;101706.31;;;24.22;50.90
65329;BME280;51941;52.210;5.158;2023-06-26T10:37:12;101704.09;;;24.10;50.61
65329;BME280;51941;52.210;5.158;2023-06-26T10:39:49;101705.97;;;23.82;50.20
65329;BME280;51941;52.210;5.158;2023-06-26T10:42:16;101711.25;;;23.73;50.99
65329;BME280;51941;52.210;5.158;2023-06-26T10:44:45;101707.50;;;23.88;51.50
65329;BME280;51941;52.210;5.158;2023-06-26T10:47:31;101709.16;;;23.84;51.85
65329;BME280;51941;52.210;5.158;2023-06-26T10:53:16;101721.72;;;24.07;50.81
65329;BME280;51941;52.210;5.158;2023-06-26T10:55:55;101712.16;;;23.83;50.49
65329;BME280;51941;52.210;5.158;2023-06-26T10:58:40;101715.25;;;23.62;50.79
65329;BME280;51941;52.210;5.158;2023-06-26T11:01:28;101721.78;;;23.43;50.28
65329;BME280;51941;52.210;5.158;2023-06-26T11:04:04;101741.97;;;23.64;49.81
65329;BME280;51941;52.210;5.158;2023-06-26T11:06:33;101745.56;;;23.59;49.36
65329;BME280;51941;52.210;5.158;2023-06-26T11:09:07;101731.50;;;23.76;49.47
65329;BME280;51941;52.210;5.158;2023-06-26T11:11:55;101731.09;;;23.83;49.66
65329;BME280;51941;52.210;5.158;2023-06-26T11:14:25;101730.66;;;23.94;50.30
65329;BME280;51941;52.210;5.158;2023-06-26T11:16:55;101733.03;;;23.63;50.97
65329;BME280;51941;52.210;5.158;2023-06-26T11:19:22;101740.63;;;23.80;50.22
65329;BME280;51941;52.210;5.158;2023-06-26T11:21:49;101744.78;;;24.05;48.61
65329;BME280;51941;52.210;5.158;2023-06-26T11:24:19;101736.25;;;24.25;47.64
65329;BME280;51941;52.210;5.158;2023-06-26T11:26:46;101746.19;;;24.43;47.14
65329;BME280;51941;52.210;5.158;2023-06-26T11:29:13;101751.91;;;24.42;46.99
65329;BME280;51941;52.210;5.158;2023-06-26T11:31:41;101729.16;;;24.29;46.82
65329;BME280;51941;52.210;5.158;2023-06-26T11:34:09;101756.63;;;24.23;47.19
65329;BME280;51941;52.210;5.158;2023-06-26T11:36:37;101758.91;;;24.16;48.16
65329;BME280;51941;52.210;5.158;2023-06-26T11:39:05;101762.03;;;24.23;48.27
65329;BME280;51941;52.210;5.158;2023-06-26T11:41:35;101757.63;;;24.27;48.83
65329;BME280;51941;52.210;5.158;2023-06-26T11:44:02;101776.03;;;24.25;48.61
65329;BME280;51941;52.210;5.158;2023-06-26T11:46:30;101772.94;;;24.04;47.92
65329;BME280;51941;52.210;5.158;2023-06-26T11:48:56;101786.66;;;23.43;47.56
65329;BME280;51941;52.210;5.158;2023-06-26T11:51:24;101780.84;;;23.49;48.86
65329;BME280;51941;52.210;5.158;2023-06-26T11:53:52;101789.22;;;23.66;48.43
65329;BME280;51941;52.210;5.158;2023-06-26T11:56:20;101792.06;;;23.75;48.36
65329;BME280;51941;52.210;5.158;2023-06-26T11:59:00;101806.97;;;23.72;49.14
65329;BME280;51941;52.210;5.158;2023-06-26T12:01:34;101799.31;;;23.80;48.36
65329;BME280;51941;52.210;5.158;2023-06-26T12:04:02;101812.38;;;23.72;47.98
65329;BME280;51941;52.210;5.158;2023-06-26T12:06:31;101807.56;;;23.69;47.66
65329;BME280;51941;52.210;5.158;2023-06-26T12:09:00;101818.09;;;23.71;47.89
65329;BME280;51941;52.210;5.158;2023-06-26T12:11:29;101818.28;;;23.74;48.35
65329;BME280;51941;52.210;5.158;2023-06-26T12:13:58;101829.19;;;23.69;48.24
65329;BME280;51941;52.210;5.158;2023-06-26T12:16:26;101824.00;;;23.54;48.98
65329;BME280;51941;52.210;5.158;2023-06-26T12:18:58;101814.09;;;23.31;48.45
65329;BME280;51941;52.210;5.158;2023-06-26T12:21:33;101812.25;;;23.45;48.36
65329;BME280;51941;52.210;5.158;2023-06-26T12:24:01;101825.19;;;23.48;48.57
65329;BME280;51941;52.210;5.158;2023-06-26T12:26:27;101825.72;;;23.31;48.69
65329;BME280;51941;52.210;5.158;2023-06-26T12:29:02;101812.91;;;23.37;49.85
65329;BME280;51941;52.210;5.158;2023-06-26T12:31:30;101836.41;;;23.18;50.40
65329;BME280;51941;52.210;5.158;2023-06-26T12:33:58;101834.81;;;23.17;50.64
65329;BME280;51941;52.210;5.158;2023-06-26T12:36:24;101841.00;;;23.17;50.70
65329;BME280;51941;52.210;5.158;2023-06-26T12:38:53;101843.56;;;22.85;50.61
65329;BME280;51941;52.210;5.158;2023-06-26T12:41:20;101848.16;;;23.08;51.48
65329;BME280;51941;52.210;5.158;2023-06-26T12:43:46;101847.59;;;23.30;50.97
65329;BME280;51941;52.210;5.158;2023-06-26T12:46:14;101845.81;;;23.44;50.81
65329;BME280;51941;52.210;5.158;2023-06-26T12:48:42;101854.47;;;23.60;50.96
65329;BME280;51941;52.210;5.158;2023-06-26T12:51:12;101862.78;;;23.63;50.56
65329;BME280;51941;52.210;5.158;2023-06-26T12:53:39;101843.56;;;23.65;50.81
65329;BME280;51941;52.210;5.158;2023-06-26T12:56:06;101853.59;;;23.64;50.84